createdAt,value
2018-09-24T00:00:47.893Z,102133.42
2018-09-24T00:03:16.249Z,102136.54
2018-09-24T00:05:44.517Z,102139.66
2018-09-24T00:08:12.765Z,102142.03
2018-09-24T00:10:41.073Z,102143.92
2018-09-24T00:13:09.370Z,102148.37
2018-09-24T00:15:37.702Z,102158.10
2018-09-24T00:18:05.975Z,102161.22
2018-09-24T00:20:34.237Z,102170.48
2018-09-24T00:23:02.513Z,102166.27
2018-09-24T00:25:30.867Z,102168.36
2018-09-24T00:27:59.268Z,102168.45
2018-09-24T00:30:27.594Z,102174.31
2018-09-24T00:32:55.853Z,102177.53
2018-09-24T00:35:24.104Z,102185.94
2018-09-24T00:37:52.480Z,102193.03
2018-09-24T00:40:20.955Z,102193.25
2018-09-24T00:42:49.205Z,102198.16
2018-09-24T00:45:17.501Z,102203.64
2018-09-24T00:47:45.752Z,102200.83
2018-09-24T00:50:14.031Z,102212.34
2018-09-24T00:52:42.413Z,102209.41
2018-09-24T00:55:10.711Z,102215.01
2018-09-24T00:57:38.981Z,102217.17
2018-09-24T01:00:07.370Z,102227.09
2018-09-24T01:02:35.618Z,102235.23
2018-09-24T01:05:03.953Z,102235.89
2018-09-24T01:07:32.229Z,102237.87
2018-09-24T01:10:00.553Z,102249.01
2018-09-24T01:12:28.812Z,102252.59
2018-09-24T01:14:57.157Z,102256.18
2018-09-24T01:17:25.506Z,102256.18
2018-09-24T01:19:53.773Z,102265.44
2018-09-24T01:22:22.114Z,102272.43
2018-09-24T01:24:50.362Z,102270.81
2018-09-24T01:27:18.598Z,102275.63
2018-09-24T01:29:46.851Z,102280.92
2018-09-24T01:32:15.105Z,102283.56
2018-09-24T01:34:43.382Z,102287.73
2018-09-24T01:37:11.662Z,102294.73
2018-09-24T01:39:39.916Z,102303.69
2018-09-24T01:42:08.227Z,102314.74
2018-09-24T01:44:36.511Z,102316.06
2018-09-24T01:47:04.772Z,102323.82
2018-09-24T01:49:33.005Z,102333.84
2018-09-24T01:52:01.313Z,102335.25
2018-09-24T01:54:30.475Z,102336.75
2018-09-24T01:56:58.843Z,102335.98
2018-09-24T01:59:27.213Z,102329.67
2018-09-24T02:01:55.500Z,102332.50
2018-09-24T02:04:23.781Z,102332.50
2018-09-24T02:06:56.246Z,102338.25
2018-09-24T02:09:24.626Z,102337.78
2018-09-24T02:11:52.945Z,102339.66
2018-09-24T02:14:21.193Z,102340.52
2018-09-24T02:16:49.456Z,102338.34
2018-09-24T02:19:17.924Z,102345.63
2018-09-24T02:21:46.176Z,102343.84
2018-09-24T02:24:14.442Z,102345.92
2018-09-24T02:26:42.709Z,102351.56
2018-09-24T02:29:11.186Z,102360.47
2018-09-24T02:31:39.672Z,102357.91
2018-09-24T02:34:08.783Z,102368.02
2018-09-24T02:36:37.167Z,102361.79
2018-09-24T02:39:07.322Z,102367.17
2018-09-24T02:41:35.898Z,102369.72
2018-09-24T02:44:04.308Z,102375.75
2018-09-24T02:46:32.657Z,102380.30
2018-09-24T02:49:02.982Z,102389.64
2018-09-24T02:51:31.946Z,102388.41
2018-09-24T02:54:00.213Z,102391.05
2018-09-24T02:56:28.604Z,102400.78
2018-09-24T02:58:56.953Z,102404.66
2018-09-24T03:01:26.583Z,102405.21
2018-09-24T03:03:54.813Z,102403.04
2018-09-24T03:06:23.129Z,102403.89
2018-09-24T03:08:51.373Z,102411.35
2018-09-24T03:11:19.701Z,102412.77
2018-09-24T03:13:48.173Z,102416.34
2018-09-24T03:16:16.506Z,102423.52
2018-09-24T03:18:47.098Z,102424.84
2018-09-24T03:21:15.375Z,102428.41
2018-09-24T03:23:43.693Z,102438.22
2018-09-24T03:26:11.917Z,102438.39
2018-09-24T03:28:40.180Z,102440.69
2018-09-24T03:31:08.558Z,102435.87
2018-09-24T03:33:36.934Z,102443.80
2018-09-24T03:36:05.263Z,102442.14
2018-09-24T03:38:33.597Z,102440.44
2018-09-24T03:41:01.869Z,102447.43
2018-09-24T03:43:30.145Z,102453.27
2018-09-24T03:45:58.424Z,102454.20
2018-09-24T03:48:26.708Z,102459.58
2018-09-24T03:50:54.973Z,102462.30
2018-09-24T03:53:23.251Z,102464.08
2018-09-24T03:55:51.626Z,102469.61
2018-09-24T03:58:20.106Z,102472.42
2018-09-24T04:00:48.395Z,102470.80
2018-09-24T04:03:16.710Z,102479.02
2018-09-24T04:05:50.286Z,102484.47
2018-09-24T04:08:23.840Z,102484.09
2018-09-24T04:10:57.521Z,102488.82
2018-09-24T04:13:31.153Z,102501.10
2018-09-24T04:16:04.871Z,102502.50
2018-09-24T04:18:38.483Z,102508.56
2018-09-24T04:21:12.201Z,102505.62
2018-09-24T04:23:45.893Z,102512.30
2018-09-24T04:26:19.465Z,102508.34
2018-09-24T04:28:53.005Z,102510.59
2018-09-24T04:31:26.650Z,102471.00
2018-09-24T04:34:00.168Z,102517.89
2018-09-24T04:36:33.633Z,102520.92
2018-09-24T04:39:07.175Z,102519.52
2018-09-24T04:41:40.849Z,102516.88
2018-09-24T04:44:14.507Z,102528.85
2018-09-24T04:46:48.097Z,102532.43
2018-09-24T04:49:21.763Z,102527.69
2018-09-24T04:51:55.463Z,102527.77
2018-09-24T04:54:29.152Z,102535.81
2018-09-24T04:57:02.682Z,102538.53
2018-09-24T04:59:36.286Z,102536.91
2018-09-24T05:02:09.845Z,102541.42
2018-09-24T05:04:43.476Z,102547.80
2018-09-24T05:07:17.445Z,102549.66
2018-09-24T05:09:51.043Z,102553.23
2018-09-24T05:12:26.532Z,102558.13
2018-09-24T05:15:07.338Z,102560.77
2018-09-24T05:17:42.595Z,102562.88
2018-09-24T05:20:16.542Z,102570.02
2018-09-24T05:22:50.384Z,102573.91
2018-09-24T05:25:24.050Z,102576.55
2018-09-24T05:27:57.931Z,102591.08
2018-09-24T05:30:31.601Z,102590.61
2018-09-24T05:33:05.027Z,102591.08
2018-09-24T05:35:38.580Z,102606.08
2018-09-24T05:38:12.241Z,102603.83
2018-09-24T05:40:45.778Z,102612.61
2018-09-24T05:43:20.005Z,102612.06
2018-09-24T05:45:53.381Z,102614.23
2018-09-24T05:48:26.777Z,102611.98
2018-09-24T05:51:00.453Z,102618.98
2018-09-24T05:53:34.074Z,102624.58
2018-09-24T05:56:07.652Z,102630.72
2018-09-24T05:58:41.181Z,102634.21
2018-09-24T06:01:14.691Z,102644.70
2018-09-24T06:03:48.268Z,102647.27
2018-09-24T06:06:21.885Z,102646.80
2018-09-24T06:08:55.348Z,102651.90
2018-09-24T06:11:29.025Z,102656.64
2018-09-24T06:14:02.550Z,102662.86
2018-09-24T06:16:36.157Z,102667.60
2018-09-24T06:19:09.720Z,102677.31
2018-09-24T06:21:43.381Z,102684.78
2018-09-24T06:24:17.084Z,102682.38
2018-09-24T06:26:50.758Z,102693.65
2018-09-24T06:29:24.472Z,102692.06
2018-09-24T06:31:58.187Z,102694.16
2018-09-24T06:34:31.871Z,102699.76
2018-09-24T06:37:05.465Z,102705.67
2018-09-24T06:39:39.102Z,102704.22
2018-09-24T06:42:12.722Z,102708.08
2018-09-24T06:44:46.392Z,102711.19
2018-09-24T06:47:20.156Z,102715.86
2018-09-24T06:49:53.616Z,102710.37
2018-09-24T07:01:05.375Z,102721.92
2018-09-24T07:03:38.965Z,102729.00
2018-09-24T07:06:12.621Z,102721.14
2018-09-24T07:08:46.257Z,102722.00
2018-09-24T07:11:20.019Z,102727.67
2018-09-24T07:13:53.621Z,102728.45
2018-09-24T07:16:27.329Z,102735.30
2018-09-24T07:19:01.068Z,102741.28
2018-09-24T07:21:34.816Z,102750.77
2018-09-24T07:24:08.149Z,102754.20
2018-09-24T07:26:41.803Z,102766.02
2018-09-24T07:29:15.647Z,102766.02
2018-09-24T07:31:49.346Z,102766.09
2018-09-24T07:34:22.776Z,102773.77
2018-09-24T07:36:56.462Z,102772.99
2018-09-24T07:39:30.145Z,102770.89
2018-09-24T07:42:03.958Z,102774.28
2018-09-24T07:44:37.365Z,102777.31
2018-09-24T07:47:10.866Z,102787.73
2018-09-24T07:49:44.419Z,102786.57
2018-09-24T07:52:17.951Z,102790.46
2018-09-24T07:54:51.626Z,102799.92
2018-09-24T07:57:25.256Z,102805.83
2018-09-24T07:59:58.916Z,102813.22
2018-09-24T08:02:32.616Z,102820.45
2018-09-24T08:05:06.197Z,102827.97
2018-09-24T08:07:39.742Z,102820.95
2018-09-24T08:10:13.343Z,102828.77
2018-09-24T08:12:46.868Z,102831.64
2018-09-24T08:15:20.277Z,102837.10
2018-09-24T08:17:53.664Z,102846.92
2018-09-24T08:20:27.396Z,102843.10
2018-09-24T08:23:00.867Z,102848.23
2018-09-24T08:25:34.305Z,102846.45
2018-09-24T08:28:07.964Z,102854.23
2018-09-24T08:30:41.385Z,102853.37
2018-09-24T08:33:14.949Z,102865.29
2018-09-24T08:35:48.501Z,102863.11
2018-09-24T08:38:22.024Z,102867.00
2018-09-24T08:40:55.635Z,102859.72
2018-09-24T08:43:29.160Z,102858.77
2018-09-24T08:46:02.849Z,102855.69
2018-09-24T08:48:36.409Z,102856.22
2018-09-24T08:51:09.896Z,102857.56
2018-09-24T08:53:43.460Z,102855.44
2018-09-24T08:56:16.869Z,102860.49
2018-09-24T08:58:50.473Z,102857.84
2018-09-24T09:01:23.985Z,102855.66
2018-09-24T09:03:57.518Z,102863.53
2018-09-24T09:06:30.989Z,102865.23
2018-09-24T09:09:04.563Z,102871.28
2018-09-24T09:11:38.034Z,102874.18
2018-09-24T09:14:11.756Z,102871.03
2018-09-24T09:16:45.281Z,102870.49
2018-09-24T09:19:18.790Z,102880.17
2018-09-24T09:21:52.514Z,102878.13
2018-09-24T09:24:25.930Z,102885.83
2018-09-24T09:26:59.641Z,102876.59
2018-09-24T09:29:33.443Z,102882.28
2018-09-24T09:32:06.842Z,102887.07
2018-09-24T09:34:40.464Z,102891.52
2018-09-24T09:37:14.114Z,102891.34
2018-09-24T09:39:47.850Z,102897.13
2018-09-24T09:42:21.290Z,102894.30
2018-09-24T09:44:54.812Z,102894.98
2018-09-24T09:47:28.583Z,102890.46
2018-09-24T09:50:02.198Z,102883.81
2018-09-24T09:52:35.672Z,102889.53
2018-09-24T09:55:09.248Z,102897.96
2018-09-24T09:57:42.812Z,102906.55
2018-09-24T10:00:16.398Z,102903.32
2018-09-24T10:02:49.961Z,102908.16
2018-09-24T10:05:23.496Z,102898.27
2018-09-24T10:07:57.014Z,102897.48
2018-09-24T10:10:30.629Z,102898.34
2018-09-24T10:13:04.327Z,102892.10
2018-09-24T10:15:38.049Z,102903.42
2018-09-24T10:18:11.587Z,102901.88
2018-09-24T10:20:45.090Z,102908.13
2018-09-24T10:23:18.759Z,102902.94
2018-09-24T10:25:52.295Z,102905.30
2018-09-24T10:28:26.037Z,102908.92
2018-09-24T10:30:59.597Z,102900.95
2018-09-24T10:33:33.317Z,102903.04
2018-09-24T10:36:10.693Z,102897.98
2018-09-24T10:38:44.321Z,102890.27
2018-09-24T10:41:17.873Z,102904.09
2018-09-24T10:43:51.390Z,102897.83
2018-09-24T10:46:24.959Z,102894.41
2018-09-24T10:48:58.504Z,102892.61
2018-09-24T10:51:32.235Z,102892.33
2018-09-24T10:54:05.595Z,102897.11
2018-09-24T10:56:39.309Z,102891.41
2018-09-24T10:59:13.003Z,102890.27
2018-09-24T11:01:46.658Z,102898.34
2018-09-24T11:04:20.321Z,102897.01
2018-09-24T11:06:53.959Z,102904.34
2018-09-24T11:09:27.625Z,102908.33
2018-09-24T11:12:01.322Z,102908.16
2018-09-24T11:14:34.957Z,102910.42
2018-09-24T11:17:08.644Z,102906.66
2018-09-24T11:19:41.814Z,102912.15
2018-09-24T11:22:15.372Z,102917.46
2018-09-24T11:24:48.922Z,102917.64
2018-09-24T11:27:22.566Z,102922.38
2018-09-24T11:29:56.218Z,102915.42
2018-09-24T11:32:29.824Z,102915.08
2018-09-24T11:35:03.458Z,102910.58
2018-09-24T11:37:37.066Z,102910.73
2018-09-24T11:40:10.777Z,102915.51
2018-09-24T11:42:44.589Z,102913.67
2018-09-24T11:45:18.134Z,102913.81
2018-09-24T11:47:51.646Z,102912.95
2018-09-24T11:50:25.206Z,102914.73
2018-09-24T11:52:58.873Z,102903.08
2018-09-24T11:55:32.407Z,102907.48
2018-09-24T11:58:06.143Z,102909.77
2018-09-24T12:00:39.833Z,102909.12
2018-09-24T12:03:13.533Z,102905.09
2018-09-24T12:05:47.236Z,102899.74
2018-09-24T12:08:20.873Z,102902.67
2018-09-24T12:10:54.545Z,102897.63
2018-09-24T12:13:27.955Z,102898.63
2018-09-24T12:16:01.620Z,102898.89
2018-09-24T12:18:35.321Z,102904.48
2018-09-24T12:21:09.045Z,102903.80
2018-09-24T12:23:42.499Z,102895.01
2018-09-24T12:26:16.134Z,102888.12
2018-09-24T12:28:49.808Z,102888.05
2018-09-24T12:31:23.202Z,102883.77
2018-09-24T12:33:56.837Z,102881.70
2018-09-24T12:36:30.441Z,102870.98
2018-09-24T12:39:04.082Z,102882.78
2018-09-24T12:41:37.853Z,102883.78
2018-09-24T12:44:11.472Z,102876.52
2018-09-24T12:46:45.055Z,102882.80
2018-09-24T12:49:18.756Z,102881.75
2018-09-24T12:51:52.311Z,102879.04
2018-09-24T12:54:25.914Z,102886.72
2018-09-24T12:56:59.442Z,102882.84
2018-09-24T12:59:32.950Z,102870.62
2018-09-24T13:02:06.497Z,102874.28
2018-09-24T13:04:40.005Z,102872.95
2018-09-24T13:07:13.644Z,102877.28
2018-09-24T13:09:47.138Z,102874.63
2018-09-24T13:12:20.645Z,102881.27
2018-09-24T13:14:54.369Z,102889.35
2018-09-24T13:17:28.102Z,102905.01
2018-09-24T13:20:01.749Z,102906.10
2018-09-24T13:22:35.330Z,102907.56
2018-09-24T13:25:09.080Z,102915.85
2018-09-24T13:27:42.560Z,102912.75
2018-09-24T13:30:16.272Z,102906.94
2018-09-24T13:32:50.024Z,102912.02
2018-09-24T13:35:23.677Z,102909.45
2018-09-24T13:37:57.542Z,102904.84
2018-09-24T13:40:30.926Z,102910.27
2018-09-24T13:43:04.449Z,102908.77
2018-09-24T13:45:37.958Z,102902.37
2018-09-24T13:48:11.679Z,102898.95
2018-09-24T13:50:45.228Z,102896.23
2018-09-24T13:53:18.923Z,102901.62
2018-09-24T13:55:52.351Z,102892.56
2018-09-24T13:58:25.955Z,102900.69
2018-09-24T14:00:59.547Z,102894.69
2018-09-24T14:03:36.920Z,102896.56
2018-09-24T14:06:10.597Z,102892.60
2018-09-24T14:08:44.187Z,102888.20
2018-09-24T14:11:17.863Z,102894.00
2018-09-24T14:13:51.501Z,102890.89
2018-09-24T14:16:25.194Z,102888.34
2018-09-24T14:18:58.900Z,102891.85
2018-09-24T14:21:32.375Z,102898.03
2018-09-24T14:24:05.995Z,102898.20
2018-09-24T14:26:39.562Z,102895.37
2018-09-24T14:29:13.781Z,102897.52
2018-09-24T14:31:47.407Z,102895.47
2018-09-24T14:34:20.952Z,102894.52
2018-09-24T14:36:54.604Z,102894.11
2018-09-24T14:39:28.184Z,102895.44
2018-09-24T14:42:01.816Z,102905.92
2018-09-24T14:44:35.441Z,102900.69
2018-09-24T14:47:09.119Z,102894.03
2018-09-24T14:49:42.818Z,102895.84
2018-09-24T14:52:16.176Z,102898.20
2018-09-24T14:54:49.822Z,102892.09
2018-09-24T14:57:23.517Z,102890.38
2018-09-24T14:59:56.989Z,102887.75
2018-09-24T15:02:30.740Z,102903.55
2018-09-24T15:05:04.221Z,102921.87
2018-09-24T15:07:37.892Z,102897.56
2018-09-24T15:10:11.501Z,102894.37
2018-09-24T15:12:45.066Z,102893.50
2018-09-24T15:15:18.554Z,102892.01
2018-09-24T15:17:51.958Z,102893.67
2018-09-24T15:20:25.552Z,102891.64
2018-09-24T15:22:59.097Z,102892.70
2018-09-24T15:25:32.787Z,102896.59
2018-09-24T15:28:06.544Z,102901.91
2018-09-24T15:30:40.113Z,102903.05
2018-09-24T15:33:13.716Z,102907.72
2018-09-24T15:35:47.297Z,102907.47
2018-09-24T15:38:20.893Z,102902.81
2018-09-24T15:40:54.512Z,102900.83
2018-09-24T15:43:27.901Z,102892.98
2018-09-24T15:46:01.416Z,102892.89
2018-09-24T15:48:34.994Z,102891.56
2018-09-24T15:51:08.525Z,102891.71
2018-09-24T15:53:42.017Z,102889.23
2018-09-24T15:56:15.518Z,102889.52
2018-09-24T15:58:48.971Z,102895.89
2018-09-24T16:01:22.593Z,102887.63
2018-09-24T16:03:56.105Z,102895.13
2018-09-24T16:06:29.707Z,102893.04
2018-09-24T16:09:03.234Z,102891.43
2018-09-24T16:11:36.726Z,102899.88
2018-09-24T16:14:10.370Z,102902.34
2018-09-24T16:16:43.986Z,102898.93
2018-09-24T16:19:17.694Z,102902.83
2018-09-24T16:21:51.877Z,102910.70
2018-09-24T16:24:25.430Z,102905.95
2018-09-24T16:26:59.130Z,102912.41
2018-09-24T16:29:32.725Z,102910.98
2018-09-24T16:32:06.262Z,102909.09
2018-09-24T16:34:39.924Z,102910.80
2018-09-24T16:37:13.428Z,102913.45
2018-09-24T16:39:46.982Z,102919.16
2018-09-24T16:42:20.721Z,102920.48
2018-09-24T16:44:54.298Z,102915.64
2018-09-24T16:47:27.949Z,102922.86
2018-09-24T16:50:01.731Z,102924.57
2018-09-24T16:52:35.397Z,102919.25
2018-09-24T16:55:08.927Z,102927.61
2018-09-24T16:57:42.530Z,102926.47
2018-09-24T17:00:16.121Z,102923.25
2018-09-24T17:02:49.498Z,102926.00
2018-09-24T17:05:23.079Z,102931.16
2018-09-24T17:07:56.573Z,102929.73
2018-09-24T17:10:30.015Z,102930.88
2018-09-24T17:13:03.733Z,102939.64
2018-09-24T17:15:38.261Z,102944.67
2018-09-24T17:18:12.036Z,102950.08
2018-09-24T17:20:45.667Z,102955.97
2018-09-24T17:23:19.176Z,102955.59
2018-09-24T17:25:52.569Z,102957.48
2018-09-24T17:28:26.168Z,102957.95
2018-09-24T17:30:59.724Z,102962.70
2018-09-24T17:33:33.136Z,102967.93
2018-09-24T17:36:06.746Z,102977.23
2018-09-24T17:38:40.222Z,102979.52
2018-09-24T17:41:13.759Z,102975.14
2018-09-24T17:43:47.283Z,102971.72
2018-09-24T17:46:20.817Z,102972.67
2018-09-24T17:48:54.332Z,102981.59
2018-09-24T17:51:27.859Z,102988.07
2018-09-24T17:54:01.329Z,102994.24
2018-09-24T17:56:34.815Z,103006.30
2018-09-24T17:59:08.425Z,102999.45
2018-09-24T18:01:42.095Z,103001.52
2018-09-24T18:04:15.506Z,103008.95
2018-09-24T18:06:48.891Z,103007.50
2018-09-24T18:09:22.538Z,103010.43
2018-09-24T18:11:56.078Z,103012.06
2018-09-24T18:14:29.654Z,103015.36
2018-09-24T18:17:03.082Z,103018.76
2018-09-24T18:19:36.707Z,103018.59
2018-09-24T18:22:10.186Z,103028.23
2018-09-24T18:24:43.734Z,103025.37
2018-09-24T18:27:17.196Z,103029.58
2018-09-24T18:29:50.718Z,103029.87
2018-09-24T18:32:24.283Z,103039.42
2018-09-24T18:34:57.782Z,103036.64
2018-09-24T18:37:31.304Z,103041.00
2018-09-24T18:40:04.717Z,103039.84
2018-09-24T18:42:38.205Z,103048.06
2018-09-24T18:45:11.675Z,103042.84
2018-09-24T18:47:45.062Z,103049.20
2018-09-24T18:50:18.627Z,103054.21
2018-09-24T18:52:52.206Z,103065.77
2018-09-24T18:55:25.702Z,103064.99
2018-09-24T18:57:59.156Z,103071.63
2018-09-24T19:00:32.686Z,103076.55
2018-09-24T19:03:06.183Z,103077.48
2018-09-24T19:05:39.626Z,103086.78
2018-09-24T19:08:13.154Z,103086.78
2018-09-24T19:10:46.615Z,103093.88
2018-09-24T19:13:20.153Z,103096.06
2018-09-24T19:15:53.721Z,103093.41
2018-09-24T19:18:27.216Z,103103.94
2018-09-24T19:21:00.724Z,103107.06
2018-09-24T19:23:34.259Z,103105.66
2018-09-24T19:26:07.774Z,103107.92
2018-09-24T19:28:41.316Z,103108.47
2018-09-24T19:31:14.936Z,103108.72
2018-09-24T19:33:48.427Z,103118.37
2018-09-24T19:36:21.959Z,103119.08
2018-09-24T19:38:55.476Z,103132.59
2018-09-24T19:41:29.070Z,103134.19
2018-09-24T19:44:02.672Z,103128.34
2018-09-24T19:46:36.207Z,103128.70
2018-09-24T19:49:09.658Z,103126.83
2018-09-24T19:51:43.175Z,103129.33
2018-09-24T19:54:16.758Z,103124.69
2018-09-24T19:56:50.258Z,103134.67
2018-09-24T19:59:23.811Z,103128.73
2018-09-24T20:01:57.362Z,103131.66
2018-09-24T20:04:30.958Z,103138.13
2018-09-24T20:07:04.467Z,103145.84
2018-09-24T20:09:45.444Z,103144.20
2018-09-24T20:12:19.019Z,103140.77
2018-09-24T20:14:52.514Z,103144.81
2018-09-24T20:17:26.017Z,103142.56
2018-09-24T20:19:59.436Z,103145.99
2018-09-24T20:22:32.991Z,103139.91
2018-09-24T20:25:06.490Z,103141.70
2018-09-24T20:27:39.966Z,103146.14
2018-09-24T20:30:13.530Z,103143.49
2018-09-24T20:32:47.188Z,103148.56
2018-09-24T20:35:20.637Z,103148.41
2018-09-24T20:37:54.058Z,103151.53
2018-09-24T20:40:27.622Z,103148.34
2018-09-24T20:43:01.117Z,103156.91
2018-09-24T20:45:34.675Z,103153.33
2018-09-24T20:48:08.223Z,103160.70
2018-09-24T20:50:41.723Z,103161.09
2018-09-24T20:53:15.233Z,103175.21
2018-09-24T20:55:48.658Z,103184.95
2018-09-24T20:58:22.249Z,103186.86
2018-09-24T21:00:55.829Z,103194.88
2018-09-24T21:03:29.359Z,103198.47
2018-09-24T21:06:02.944Z,103195.11
2018-09-24T21:08:36.479Z,103201.34
2018-09-24T21:11:10.043Z,103202.75
2018-09-24T21:13:43.486Z,103204.61
2018-09-24T21:16:17.119Z,103207.34
2018-09-24T21:18:50.654Z,103201.72
2018-09-24T21:21:24.237Z,103210.50
2018-09-24T21:23:57.703Z,103212.33
2018-09-24T21:26:31.205Z,103216.77
2018-09-24T21:29:04.747Z,103219.27
2018-09-24T21:31:38.300Z,103218.45
2018-09-24T21:34:11.951Z,103213.64
2018-09-24T21:36:46.129Z,103217.70
2018-09-24T21:39:19.689Z,103230.63
2018-09-24T21:41:59.684Z,103225.55
2018-09-24T21:44:33.202Z,103234.58
2018-09-24T21:47:06.814Z,103230.39
2018-09-24T21:49:40.482Z,103233.72
2018-09-24T21:52:14.054Z,103220.23
2018-09-24T21:54:47.599Z,103236.66
2018-09-24T21:57:21.147Z,103239.31
2018-09-24T21:59:55.168Z,103247.58
2018-09-24T22:02:28.715Z,103249.37
2018-09-24T22:05:02.260Z,103251.16
2018-09-24T22:07:35.819Z,103250.16
2018-09-24T22:10:09.329Z,103250.02
2018-09-24T22:12:43.419Z,103254.52
2018-09-24T22:15:17.055Z,103249.12
2018-09-24T22:17:50.707Z,103252.09
2018-09-24T22:20:24.377Z,103243.36
2018-09-24T22:22:57.973Z,103248.40
2018-09-24T22:25:32.291Z,103244.34
2018-09-24T22:28:05.738Z,103255.69
2018-09-24T22:30:39.291Z,103249.38
2018-09-24T22:33:12.869Z,103250.91
2018-09-24T22:35:46.903Z,103243.96
2018-09-24T22:38:20.362Z,103244.82
2018-09-24T22:40:54.455Z,103247.08
2018-09-24T22:43:27.967Z,103244.17
2018-09-24T22:46:01.409Z,103246.59
2018-09-24T22:48:34.959Z,103247.66
2018-09-24T22:51:08.522Z,103248.72
2018-09-24T22:53:48.766Z,103257.72
2018-09-24T22:56:22.315Z,103264.11
2018-09-24T22:58:55.919Z,103257.63
2018-09-24T23:01:29.487Z,103269.67
2018-09-24T23:04:03.004Z,103263.19
2018-09-24T23:06:36.541Z,103272.12
2018-09-24T23:09:10.799Z,103269.23
2018-09-24T23:11:44.381Z,103264.08
2018-09-24T23:14:17.939Z,103267.72
2018-09-24T23:16:51.530Z,103270.89
2018-09-24T23:19:25.019Z,103272.08
2018-09-24T23:21:58.494Z,103269.70
2018-09-24T23:24:32.060Z,103270.50
2018-09-24T23:27:05.623Z,103274.47
2018-09-24T23:29:39.209Z,103277.64
2018-09-24T23:32:12.700Z,103271.95
2018-09-24T23:34:46.190Z,103266.39
2018-09-24T23:37:19.784Z,103271.88
2018-09-24T23:39:53.391Z,103271.25
2018-09-24T23:42:27.014Z,103266.02
2018-09-24T23:45:00.580Z,103264.70
2018-09-24T23:47:34.205Z,103257.56
2018-09-24T23:50:07.813Z,103261.83
2018-09-24T23:52:41.453Z,103256.54
2018-09-24T23:55:15.015Z,103256.23
2018-09-24T23:57:48.552Z,103262.98
